Time;durP1;ratioP1;P1;durP2;ratioP2;P2;SDS_P1;SDS_P2;PMS_P1;PMS_P2;Temp;Humidity;BMP_temperature;BMP_pressure;BME280_temperature;BME280_humidity;BME280_pressure;Samples;Min_cycle;Max_cycle;Signal;HPM_P1;HPM_P2
2021/12/20 00:00:38;;;;;;;0.75;0.57;;;;;;;4.46;100.00;102362.78;5086096;28;20047;-49
2021/12/20 00:03:04;;;;;;;0.30;0.10;;;;;;;4.47;100.00;102361.03;5083301;28;20036;-47
2021/12/20 00:05:30;;;;;;;1.33;0.35;;;;;;;4.48;100.00;102362.72;5077041;28;20043;-48
2021/12/20 00:07:55;;;;;;;0.50;0.10;;;;;;;4.48;100.00;102360.91;5077164;28;20566;-51
2021/12/20 00:10:22;;;;;;;0.55;0.32;;;;;;;4.50;100.00;102366.91;5077848;28;20545;-46
2021/12/20 00:12:48;;;;;;;0.13;0.10;;;;;;;4.48;100.00;102358.28;5082339;28;20027;-47
2021/12/20 00:15:14;;;;;;;0.52;0.52;;;;;;;4.47;100.00;102368.91;5079530;28;20301;-49
2021/12/20 00:17:40;;;;;;;0.20;0.10;;;;;;;4.47;100.00;102363.66;5083117;28;20039;-45
2021/12/20 00:20:06;;;;;;;0.63;0.30;;;;;;;4.46;100.00;102360.16;5078773;28;20117;-49
2021/12/20 00:22:31;;;;;;;0.38;0.38;;;;;;;4.46;100.00;102362.78;5082869;28;20031;-49
2021/12/20 00:24:57;;;;;;;12.63;1.48;;;;;;;4.46;100.00;102354.91;5076384;28;20027;-47
2021/12/20 00:27:23;;;;;;;1.55;0.20;;;;;;;4.46;100.00;102348.81;5078702;28;20501;-47
2021/12/20 00:29:49;;;;;;;2.25;0.30;;;;;;;4.47;100.00;102361.88;5085498;28;20039;-49
2021/12/20 00:32:18;;;;;;;2.05;0.40;;;;;;;4.47;100.00;102361.88;5073394;28;20027;-50
2021/12/20 00:34:45;;;;;;;0.30;0.28;;;;;;;4.46;100.00;102354.91;5072903;28;20025;-51
2021/12/20 00:42:40;;;;;;;0.30;0.30;;;;;;;4.46;100.00;102351.47;5073223;28;20139;-48
2021/12/20 00:45:06;;;;;;;1.98;0.68;;;;;;;4.45;100.00;102355.88;5069602;28;20025;-50
2021/12/20 00:47:32;;;;;;;0.68;0.52;;;;;;;4.43;100.00;102351.66;5066222;28;20504;-48
2021/12/20 00:49:57;;;;;;;2.28;1.00;;;;;;;4.41;100.00;102351.75;5080525;28;20028;-50
2021/12/20 00:52:22;;;;;;;1.15;0.43;;;;;;;4.43;100.00;102347.25;5086964;28;20039;-51
2021/12/20 00:54:48;;;;;;;3.08;0.60;;;;;;;4.45;100.00;102342.75;5085735;28;20054;-50
2021/12/20 00:57:13;;;;;;;2.40;0.35;;;;;;;4.46;100.00;102333.06;5085319;28;20172;-51
2021/12/20 00:59:38;;;;;;;1.30;0.47;;;;;;;4.46;100.00;102336.53;5085947;28;20128;-51
2021/12/20 01:02:04;;;;;;;0.38;0.30;;;;;;;4.46;100.00;102339.16;5081322;28;20050;-50
2021/12/20 01:04:29;;;;;;;0.90;0.90;;;;;;;4.45;100.00;102331.41;5077508;28;20044;-47
2021/12/20 01:06:54;;;;;;;0.52;0.20;;;;;;;4.43;100.00;102331.50;5081459;28;20370;-51
2021/12/20 01:09:20;;;;;;;0.30;0.30;;;;;;;4.45;100.00;102316.47;5074521;28;20032;-50
2021/12/20 01:11:50;;;;;;;0.47;0.22;;;;;;;4.43;100.00;102323.63;5065767;28;20111;-50
2021/12/20 01:14:22;;;;;;;2.77;0.90;;;;;;;4.42;100.00;102327.19;5073889;28;20086;-49
2021/12/20 01:16:48;;;;;;;0.47;0.10;;;;;;;4.42;100.00;102323.75;5067074;28;20305;-47
2021/12/20 01:19:13;;;;;;;3.70;1.23;;;;;;;4.42;100.00;102324.56;5066620;28;20063;-48
2021/12/20 01:21:40;;;;;;;2.22;0.38;;;;;;;4.42;100.00;102336.88;5065132;28;20032;-53
2021/12/20 01:24:05;;;;;;;3.60;1.17;;;;;;;4.44;100.00;102327.06;5067167;28;20033;-49
2021/12/20 01:26:31;;;;;;;1.45;0.50;;;;;;;4.43;100.00;102315.72;5066550;28;20113;-49
2021/12/20 01:28:56;;;;;;;0.68;0.30;;;;;;;4.45;100.00;102313.00;5084965;28;20032;-49
2021/12/20 01:31:21;;;;;;;1.83;0.15;;;;;;;4.46;100.00;102314.69;5073236;28;20033;-49
2021/12/20 01:33:48;;;;;;;0.75;0.30;;;;;;;4.45;100.00;102305.97;5078426;28;20025;-48
2021/12/20 01:36:13;;;;;;;0.32;0.20;;;;;;;4.44;100.00;102311.31;5066385;28;20032;-51
2021/12/20 01:38:39;;;;;;;5.50;0.47;;;;;;;4.44;100.00;102309.56;5066072;28;20582;-51
2021/12/20 01:41:06;;;;;;;0.40;0.28;;;;;;;4.44;100.00;102306.94;5075762;28;20209;-46
2021/12/20 01:43:32;;;;;;;1.55;0.55;;;;;;;4.42;100.00;102306.19;5085708;28;20814;-48
2021/12/20 01:45:59;;;;;;;3.22;0.70;;;;;;;4.41;100.00;102301.84;5080354;28;20059;-52
2021/12/20 01:48:25;;;;;;;0.30;0.30;;;;;;;4.42;100.00;102308.81;5083170;28;20107;-52
2021/12/20 01:51:28;;;;;;;0.98;0.55;;;;;;;4.45;100.00;102305.97;5073177;28;20059;-51
2021/12/20 01:53:38;;;;;;;0.28;0.28;;;;;;;4.48;100.00;102304.91;5079711;28;20482;-47
2021/12/20 01:56:04;;;;;;;3.30;0.30;;;;;;;4.46;100.00;102302.38;5067213;28;20116;-51
2021/12/20 01:58:30;;;;;;;0.30;0.25;;;;;;;4.46;100.00;102312.06;5083087;28;20059;-50
2021/12/20 02:03:38;;;;;;;0.63;0.20;;;;;;;4.46;100.00;102309.44;5083865;28;20033;-51
2021/12/20 02:06:09;;;;;;;0.85;0.70;;;;;;;4.46;100.00;102310.25;5069263;28;20034;-49
2021/12/20 02:08:34;;;;;;;1.70;0.33;;;;;;;4.46;100.00;102307.63;5070033;28;20040;-52
2021/12/20 02:11:03;;;;;;;2.10;1.25;;;;;;;4.47;100.00;102308.50;5069570;28;20657;-49
2021/12/20 02:13:30;;;;;;;0.82;0.43;;;;;;;4.45;100.00;102311.22;5080055;28;20029;-49
2021/12/20 02:15:57;;;;;;;0.13;0.13;;;;;;;4.45;100.00;102303.34;5086755;28;20028;-50
2021/12/20 02:18:22;;;;;;;0.85;0.38;;;;;;;4.43;100.00;102307.84;5084730;28;20040;-47
2021/12/20 02:20:48;;;;;;;1.67;0.35;;;;;;;4.43;100.00;102301.75;5072879;28;20024;-53
2021/12/20 02:23:13;;;;;;;1.83;0.60;;;;;;;4.42;100.00;102298.31;5087759;28;20024;-49
2021/12/20 02:25:39;;;;;;;1.20;0.32;;;;;;;4.42;100.00;102294.84;5081465;28;20370;-48
2021/12/20 02:28:10;;;;;;;2.72;0.82;;;;;;;4.42;100.00;102289.59;5082924;28;20839;-51
2021/12/20 02:38:41;;;;;;;1.10;0.30;;;;;;;4.41;100.00;102283.47;5068879;28;20039;-48
2021/12/20 02:41:31;;;;;;;1.02;0.30;;;;;;;4.41;100.00;102288.72;5076967;28;20031;-51
2021/12/20 02:44:03;;;;;;;3.60;1.08;;;;;;;4.37;100.00;102287.28;5081508;28;20056;-49
2021/12/20 02:49:21;;;;;;;2.53;0.95;;;;;;;4.37;100.00;102282.03;5086918;28;20040;-51
2021/12/20 02:51:50;;;;;;;1.33;0.30;;;;;;;4.37;100.00;102284.66;5077868;28;20103;-48
2021/12/20 02:54:16;;;;;;;3.20;1.13;;;;;;;4.36;100.00;102280.31;5078218;28;20481;-48
2021/12/20 02:56:42;;;;;;;5.50;2.50;;;;;;;4.40;100.00;102278.34;5073904;28;20032;-49
2021/12/20 02:59:09;;;;;;;1.33;0.60;;;;;;;4.41;100.00;102280.00;5087505;28;20043;-49
2021/12/20 03:01:37;;;;;;;1.25;1.15;;;;;;;4.42;100.00;102272.03;5073924;28;20043;-48
2021/12/20 03:04:03;;;;;;;1.05;0.80;;;;;;;4.44;100.00;102267.53;5084166;28;20028;-50
2021/12/20 03:06:43;;;;;;;5.05;0.80;;;;;;;4.43;100.00;102265.81;5075199;28;20520;-50
2021/12/20 03:09:14;;;;;;;2.55;0.98;;;;;;;4.40;100.00;102263.41;5075872;28;20063;-51
2021/12/20 03:11:40;;;;;;;;;;;;;;;4.42;100.00;102260.69;5088019;28;20043;-48
2021/12/20 03:14:29;;;;;;;3.70;1.65;;;;;;;4.40;100.00;102262.59;5078695;28;19920;-51
2021/12/20 03:16:55;;;;;;;1.23;1.13;;;;;;;4.40;100.00;102254.72;5070991;28;20055;-48
2021/12/20 03:19:21;;;;;;;1.45;0.50;;;;;;;4.37;100.00;102253.97;5068159;28;20048;-48
2021/12/20 03:21:46;;;;;;;1.02;0.60;;;;;;;4.38;100.00;102253.00;5086998;28;20247;-49
2021/12/20 03:24:12;;;;;;;0.95;0.50;;;;;;;4.40;100.00;102252.09;5077016;28;20165;-47
2021/12/20 03:26:37;;;;;;;2.47;0.20;;;;;;;4.36;100.00;102249.69;5081305;28;20075;-53
2021/12/20 03:29:04;;;;;;;3.60;0.30;;;;;;;4.40;100.00;102250.28;5076153;28;20371;-48
2021/12/20 03:31:29;;;;;;;0.50;0.50;;;;;;;4.40;100.00;102250.28;5074993;28;20047;-49
2021/12/20 03:33:55;;;;;;;0.52;0.38;;;;;;;4.41;100.00;102249.31;5078954;28;20027;-49
2021/12/20 03:36:20;;;;;;;1.25;0.60;;;;;;;4.41;100.00;102249.31;5073853;28;20082;-49
2021/12/20 03:38:46;;;;;;;0.10;0.10;;;;;;;4.41;100.00;102245.88;5080232;28;20048;-51
2021/12/20 03:41:11;;;;;;;0.77;0.20;;;;;;;4.40;100.00;102244.19;5066168;28;20544;-50
2021/12/20 03:43:36;;;;;;;1.27;0.15;;;;;;;4.36;100.00;102246.19;5083154;28;20470;-48
2021/12/20 03:46:03;;;;;;;0.80;0.10;;;;;;;4.40;100.00;102228.44;5081270;28;20040;-52
2021/12/20 03:48:29;;;;;;;3.83;1.92;;;;;;;4.37;100.00;102222.44;5082734;28;20048;-51
2021/12/20 03:50:56;;;;;;;0.40;0.10;;;;;;;4.37;100.00;102225.06;5068159;28;20067;-49
2021/12/20 03:53:21;;;;;;;3.47;0.43;;;;;;;4.34;100.00;102214.78;5067545;28;20043;-50
2021/12/20 03:55:47;;;;;;;0.65;0.20;;;;;;;4.33;100.00;102239.34;5079701;28;20027;-47
2021/12/20 03:58:13;;;;;;;0.93;0.20;;;;;;;4.31;100.00;102225.53;5084149;28;20508;-48
2021/12/20 04:00:38;;;;;;;1.33;0.65;;;;;;;4.30;100.00;102223.00;5084019;28;20543;-48
2021/12/20 04:03:09;;;;;;;2.50;1.17;;;;;;;4.29;100.00;102218.69;5087202;28;20020;-50
2021/12/20 04:05:35;;;;;;;0.57;0.57;;;;;;;4.29;100.00;102226.56;5065509;28;20218;-48
2021/12/20 04:08:01;;;;;;;1.27;0.82;;;;;;;4.29;100.00;102216.06;5064595;28;20029;-48
2021/12/20 04:10:26;;;;;;;0.57;0.32;;;;;;;4.27;100.00;102218.78;5069634;28;20043;-49
2021/12/20 04:12:51;;;;;;;1.08;0.82;;;;;;;4.28;100.00;102214.38;5077577;28;20039;-51
2021/12/20 04:15:17;;;;;;;0.90;0.38;;;;;;;4.28;100.00;102219.63;5068973;28;20060;-46
2021/12/20 04:17:42;;;;;;;1.10;0.65;;;;;;;4.26;100.00;102218.88;5068003;28;20485;-50
2021/12/20 04:20:09;;;;;;;2.28;1.05;;;;;;;4.27;100.00;102217.97;5066478;28;20048;-52
2021/12/20 04:22:34;;;;;;;2.25;0.90;;;;;;;4.25;100.00;102210.19;5063806;28;20116;-51
2021/12/20 04:24:59;;;;;;;2.72;0.73;;;;;;;4.22;100.00;102220.06;5065249;28;20066;-53
2021/12/20 04:27:25;;;;;;;0.45;0.30;;;;;;;4.20;100.00;102214.06;5078340;28;20073;-51
2021/12/20 04:29:50;;;;;;;2.40;0.88;;;;;;;4.17;100.00;102207.25;5075585;28;20035;-49
2021/12/20 04:32:16;;;;;;;4.38;0.65;;;;;;;4.15;100.00;102209.13;5072590;28;20397;-48
2021/12/20 04:34:41;;;;;;;1.08;0.47;;;;;;;4.14;100.00;102203.06;5081745;28;20165;-47
2021/12/20 04:37:08;;;;;;;1.70;0.77;;;;;;;4.16;100.00;102205.59;5085314;28;20024;-51
2021/12/20 04:39:34;;;;;;;1.77;0.80;;;;;;;4.15;100.00;102212.59;5085399;28;20498;-51
2021/12/20 04:42:00;;;;;;;5.47;2.33;;;;;;;4.16;100.00;102216.09;5074258;28;20081;-50
2021/12/20 04:44:26;;;;;;;1.15;0.80;;;;;;;4.17;100.00;102204.63;5074580;28;20025;-50
2021/12/20 04:46:52;;;;;;;2.50;0.93;;;;;;;4.17;100.00;102201.16;5073848;28;20035;-50
2021/12/20 04:49:18;;;;;;;2.72;0.82;;;;;;;4.15;100.00;102214.38;5076481;28;20435;-49
2021/12/20 04:51:43;;;;;;;1.98;0.63;;;;;;;4.14;100.00;102212.72;5081241;28;20028;-47
2021/12/20 04:54:08;;;;;;;2.13;0.82;;;;;;;4.15;100.00;102215.22;5077481;28;20032;-47
2021/12/20 04:56:34;;;;;;;1.40;0.93;;;;;;;4.14;100.00;102213.56;5066950;28;20024;-50
2021/12/20 04:58:59;;;;;;;1.38;0.65;;;;;;;4.15;100.00;102214.38;5067127;28;20029;-54
2021/12/20 05:01:25;;;;;;;1.85;1.05;;;;;;;4.12;100.00;102210.19;5083937;28;20032;-47
2021/12/20 05:03:50;;;;;;;0.85;0.45;;;;;;;4.14;100.00;102208.31;5083243;28;20491;-48
2021/12/20 05:06:15;;;;;;;1.13;0.88;;;;;;;4.16;100.00;102205.59;5085402;28;20028;-51
2021/12/20 05:08:50;;;;;;;1.48;1.20;;;;;;;4.17;100.00;102206.41;5080239;28;20067;-50
2021/12/20 05:11:15;;;;;;;0.98;0.57;;;;;;;4.16;100.00;102202.97;5071961;28;20433;-51
2021/12/20 05:13:41;;;;;;;1.10;0.50;;;;;;;4.17;100.00;102209.88;5080735;28;20058;-50
2021/12/20 05:16:06;;;;;;;0.90;0.40;;;;;;;4.19;100.00;102212.41;5098900;28;20381;-47
2021/12/20 05:18:32;;;;;;;0.77;0.35;;;;;;;4.17;100.00;102204.63;5066826;28;20028;-52
2021/12/20 05:20:58;;;;;;;1.80;1.40;;;;;;;4.17;100.00;102201.16;5066985;28;20085;-48
2021/12/20 05:23:23;;;;;;;1.60;0.85;;;;;;;4.16;100.00;102210.84;5080670;28;20272;-47
2021/12/20 05:25:48;;;;;;;3.55;1.30;;;;;;;4.15;100.00;102207.34;5077501;28;20036;-49
2021/12/20 05:28:14;;;;;;;0.98;0.85;;;;;;;4.14;100.00;102197.81;5077878;28;20470;-50
2021/12/20 05:30:40;;;;;;;0.93;0.47;;;;;;;4.13;100.00;102198.75;5079211;28;20028;-51
2021/12/20 05:33:06;;;;;;;1.45;0.77;;;;;;;4.11;100.00;102205.91;5086140;28;20038;-49
2021/12/20 05:35:31;;;;;;;1.88;1.60;;;;;;;4.10;100.00;102191.06;5082497;28;20039;-49
2021/12/20 05:37:58;;;;;;;2.15;0.55;;;;;;;4.11;100.00;102194.56;5086083;28;20058;-49
2021/12/20 05:40:25;;;;;;;1.15;0.80;;;;;;;4.10;100.00;102191.06;5084331;28;20032;-51
2021/12/20 05:42:51;;;;;;;0.75;0.50;;;;;;;4.07;100.00;102190.47;5083647;28;20039;-49
2021/12/20 05:45:18;;;;;;;2.67;1.55;;;;;;;4.03;100.00;102196.88;5080581;28;20024;-48
2021/12/20 05:47:44;;;;;;;0.30;0.30;;;;;;;3.99;100.00;102204.13;5088941;28;20050;-52
2021/12/20 05:50:13;;;;;;;1.73;0.77;;;;;;;4.00;100.00;102197.94;5081253;28;20123;-46
2021/12/20 05:52:39;;;;;;;0.82;0.40;;;;;;;4.00;100.00;102192.69;5080731;28;20389;-49
2021/12/20 05:55:06;;;;;;;2.92;0.82;;;;;;;4.02;100.00;102198.66;5087796;28;20035;-50
2021/12/20 05:57:32;;;;;;;1.35;0.68;;;;;;;4.01;100.00;102196.97;5086538;28;20981;-50
2021/12/20 05:59:58;;;;;;;1.85;0.95;;;;;;;4.01;100.00;102188.28;5083728;28;20036;-51
2021/12/20 06:02:23;;;;;;;1.25;1.05;;;;;;;4.02;100.00;102195.19;5104172;27;20089;-51
2021/12/20 06:04:50;;;;;;;1.27;0.73;;;;;;;4.05;100.00;102197.59;5082639;28;20485;-51
2021/12/20 06:07:20;;;;;;;0.52;0.35;;;;;;;4.04;100.00;102198.56;5084098;28;20040;-47
2021/12/20 06:09:46;;;;;;;1.75;0.73;;;;;;;4.03;100.00;102202.97;5083779;28;20481;-48
2021/12/20 06:12:11;;;;;;;0.88;0.75;;;;;;;4.01;100.00;102201.41;5086266;28;20032;-48
2021/12/20 06:14:37;;;;;;;3.33;0.80;;;;;;;3.98;100.00;102206.88;5085439;28;20109;-50
2021/12/20 06:17:02;;;;;;;1.35;1.15;;;;;;;3.98;100.00;102205.06;5085420;28;20115;-49
2021/12/20 06:19:28;;;;;;;2.17;0.93;;;;;;;3.99;100.00;102205.91;5082145;28;20053;-48
2021/12/20 06:21:55;;;;;;;1.25;0.95;;;;;;;3.98;100.00;102207.69;5085300;28;20164;-47
2021/12/20 06:24:21;;;;;;;0.95;0.60;;;;;;;3.99;100.00;102204.13;5085790;28;20119;-47
2021/12/20 06:26:46;;;;;;;2.53;0.85;;;;;;;4.01;100.00;102204.03;5081839;28;20100;-47
2021/12/20 06:29:11;;;;;;;1.85;0.68;;;;;;;4.01;100.00;102206.66;5086227;28;20028;-52
2021/12/20 06:31:37;;;;;;;2.88;1.17;;;;;;;4.01;100.00;102204.84;5084300;28;20032;-51
2021/12/20 06:34:02;;;;;;;6.80;0.80;;;;;;;4.03;100.00;102200.34;5085137;28;20069;-50
2021/12/20 06:36:29;;;;;;;0.70;0.47;;;;;;;4.05;100.00;102211.59;5085939;28;20493;-47
2021/12/20 06:38:56;;;;;;;2.00;0.68;;;;;;;4.08;100.00;102202.63;5085174;28;20064;-50
2021/12/20 06:41:22;;;;;;;1.65;0.70;;;;;;;4.08;100.00;102200.88;5086094;28;20119;-48
2021/12/20 06:43:48;;;;;;;2.33;0.82;;;;;;;4.10;100.00;102195.50;5078546;28;20024;-48
2021/12/20 06:46:15;;;;;;;3.88;0.40;;;;;;;4.10;100.00;102203.38;5082104;28;20123;-46
2021/12/20 06:48:40;;;;;;;3.30;0.73;;;;;;;4.12;100.00;102202.31;5080567;28;20036;-47
2021/12/20 06:51:05;;;;;;;1.88;0.38;;;;;;;4.11;100.00;102205.06;5082439;28;20035;-49
2021/12/20 06:53:31;;;;;;;4.13;1.75;;;;;;;4.10;100.00;102203.38;5080386;28;20440;-47
2021/12/20 06:55:56;;;;;;;2.42;0.55;;;;;;;4.10;100.00;102201.56;5079235;28;20451;-47
2021/12/20 06:58:23;;;;;;;1.55;0.60;;;;;;;4.10;100.00;102198.13;5068134;28;20121;-51
2021/12/20 07:00:50;;;;;;;4.57;0.95;;;;;;;4.10;100.00;102203.38;5076111;28;20111;-48
2021/12/20 07:03:15;;;;;;;0.63;0.52;;;;;;;4.11;100.00;102203.28;5083647;28;20028;-51
2021/12/20 07:05:41;;;;;;;1.85;0.43;;;;;;;4.12;100.00;102209.34;5081790;28;20028;-51
2021/12/20 07:08:06;;;;;;;0.88;0.25;;;;;;;4.15;100.00;102204.72;5080788;28;20437;-48
2021/12/20 07:10:32;;;;;;;0.73;0.43;;;;;;;4.18;100.00;102202.84;5100798;28;20060;-51
2021/12/20 07:12:57;;;;;;;2.10;1.23;;;;;;;4.18;100.00;102197.59;5082571;28;20456;-49
2021/12/20 07:15:25;;;;;;;0.43;0.20;;;;;;;4.20;100.00;102206.19;5077057;28;20036;-47
2021/12/20 07:17:50;;;;;;;0.98;0.40;;;;;;;4.22;100.00;102210.41;5074942;28;20231;-46
2021/12/20 07:20:15;;;;;;;2.03;0.70;;;;;;;4.22;100.00;102207.78;5067460;28;20031;-53
2021/12/20 07:22:41;;;;;;;1.52;0.90;;;;;;;4.20;100.00;102200.94;5080235;28;20083;-49
2021/12/20 07:25:08;;;;;;;1.00;0.55;;;;;;;4.19;100.00;102200.13;5070614;28;20038;-48
2021/12/20 07:27:33;;;;;;;1.08;0.40;;;;;;;4.18;100.00;102208.09;5083098;28;20374;-53
2021/12/20 07:29:59;;;;;;;3.28;0.55;;;;;;;4.18;100.00;102201.03;5080388;28;20039;-49
2021/12/20 07:32:25;;;;;;;0.85;0.28;;;;;;;4.18;100.00;102203.66;5071695;28;21382;-51
2021/12/20 07:34:50;;;;;;;1.98;1.33;;;;;;;4.17;100.00;102196.75;5081753;28;20033;-47
2021/12/20 07:37:17;;;;;;;0.40;0.22;;;;;;;4.18;100.00;102201.03;5081789;28;20036;-52
2021/12/20 07:39:42;;;;;;;0.43;0.40;;;;;;;4.19;100.00;102194.03;5076926;28;20028;-49
2021/12/20 07:42:09;;;;;;;1.58;0.60;;;;;;;4.19;100.00;102194.88;5079917;28;20028;-48
2021/12/20 07:44:35;;;;;;;1.77;0.70;;;;;;;4.18;100.00;102190.53;5076875;28;20073;-46
2021/12/20 07:47:00;;;;;;;1.27;0.50;;;;;;;4.17;100.00;102188.88;5073929;28;20045;-48
2021/12/20 07:49:25;;;;;;;1.17;0.88;;;;;;;4.18;100.00;102185.28;5080092;28;20046;-49
2021/12/20 07:51:53;;;;;;;1.02;0.32;;;;;;;4.21;100.00;102192.97;5083110;28;20400;-50
2021/12/20 07:54:19;;;;;;;1.02;0.52;;;;;;;4.25;100.00;102183.09;5084463;28;20556;-50
2021/12/20 07:56:44;;;;;;;3.17;1.35;;;;;;;4.25;100.00;102189.16;5084828;28;20030;-49
2021/12/20 07:59:09;;;;;;;1.10;0.47;;;;;;;4.27;100.00;102186.44;5075089;28;20550;-51
2021/12/20 08:01:35;;;;;;;1.95;0.88;;;;;;;4.26;100.00;102187.38;5076893;28;20065;-46
2021/12/20 08:04:02;;;;;;;3.42;0.47;;;;;;;4.28;100.00;102190.75;5080760;28;20027;-50
2021/12/20 08:06:28;;;;;;;1.20;0.70;;;;;;;4.28;100.00;102191.56;5081204;28;20384;-46
2021/12/20 08:08:53;;;;;;;1.02;0.70;;;;;;;4.29;100.00;102201.16;5077298;28;20072;-51
2021/12/20 08:11:19;;;;;;;1.70;0.65;;;;;;;4.29;100.00;102201.16;5079543;28;20389;-49
2021/12/20 08:13:44;;;;;;;4.25;0.50;;;;;;;4.29;100.00;102205.56;5081478;28;20147;-49
2021/12/20 08:16:12;;;;;;;0.60;0.20;;;;;;;4.27;100.00;102204.81;5082822;28;20043;-50
2021/12/20 08:18:42;;;;;;;2.15;0.60;;;;;;;4.26;100.00;102197.88;5078007;28;20073;-48
2021/12/20 08:21:07;;;;;;;1.63;0.65;;;;;;;4.26;100.00;102200.50;5078719;28;20392;-49
2021/12/20 08:23:33;;;;;;;1.10;0.82;;;;;;;4.26;100.00;102198.75;5083661;28;20506;-49
2021/12/20 08:25:58;;;;;;;6.45;0.47;;;;;;;4.28;100.00;102206.50;5077436;28;20047;-49
2021/12/20 08:28:24;;;;;;;1.52;0.52;;;;;;;4.29;100.00;102201.16;5076742;28;20098;-50
2021/12/20 08:30:49;;;;;;;0.40;0.40;;;;;;;4.30;100.00;102207.22;5076690;28;20024;-48
2021/12/20 08:33:14;;;;;;;0.30;0.20;;;;;;;4.32;100.00;102197.47;5074897;28;20032;-46
2021/12/20 08:35:42;;;;;;;0.52;0.20;;;;;;;4.33;100.00;102207.00;5078152;28;20032;-49
2021/12/20 08:38:07;;;;;;;0.77;0.73;;;;;;;4.35;100.00;102202.50;5075334;28;20029;-49
2021/12/20 08:40:33;;;;;;;1.42;0.55;;;;;;;4.36;100.00;102205.03;5067190;28;20438;-49
2021/12/20 08:42:58;;;;;;;0.55;0.20;;;;;;;4.36;100.00;102202.41;5072738;28;20118;-48
2021/12/20 08:45:24;;;;;;;1.00;0.47;;;;;;;4.38;100.00;102200.47;5076116;28;20228;-51
2021/12/20 08:47:51;;;;;;;1.13;0.25;;;;;;;4.40;100.00;102202.19;5070324;28;20024;-46
2021/12/20 08:50:18;;;;;;;1.00;0.30;;;;;;;4.41;100.00;102204.69;5069054;28;20405;-47
2021/12/20 08:52:44;;;;;;;1.00;0.52;;;;;;;4.42;100.00;102206.38;5076138;28;20036;-47
2021/12/20 08:55:11;;;;;;;0.55;0.20;;;;;;;4.41;100.00;102202.06;5082056;28;20562;-45
2021/12/20 08:57:37;;;;;;;1.67;0.32;;;;;;;4.41;100.00;102207.31;5074019;28;20024;-49
2021/12/20 09:00:06;;;;;;;0.57;0.32;;;;;;;4.41;100.00;102209.94;5075905;28;20028;-50
2021/12/20 09:02:31;;;;;;;0.90;0.30;;;;;;;4.41;100.00;102209.09;5079844;28;20483;-49
2021/12/20 09:04:57;;;;;;;0.73;0.30;;;;;;;4.40;100.00;102204.81;5070827;28;20425;-47
2021/12/20 09:07:22;;;;;;;1.17;0.43;;;;;;;4.41;100.00;102206.47;5074455;28;20457;-49
2021/12/20 09:09:48;;;;;;;0.40;0.22;;;;;;;4.42;100.00;102214.25;5079656;28;20032;-47
2021/12/20 09:12:21;;;;;;;1.33;1.05;;;;;;;4.45;100.00;102221.91;5079048;28;20032;-49
2021/12/20 09:14:48;;;;;;;0.45;0.40;;;;;;;4.47;100.00;102217.41;5081681;28;20024;-47
2021/12/20 09:17:13;;;;;;;4.22;0.38;;;;;;;4.48;100.00;102213.81;5076603;28;20081;-45
2021/12/20 09:19:39;;;;;;;3.05;0.50;;;;;;;4.50;100.00;102208.47;5072474;28;20025;-46
2021/12/20 09:22:06;;;;;;;1.40;0.40;;;;;;;4.52;100.00;102210.03;5080239;28;20032;-48
2021/12/20 09:24:33;;;;;;;1.45;0.40;;;;;;;4.54;100.00;102205.50;5073127;28;20068;-52
2021/12/20 09:26:59;;;;;;;0.63;0.10;;;;;;;4.55;100.00;102208.97;5084003;28;20180;-49
2021/12/20 09:29:24;;;;;;;0.00;0.00;;;;;;;4.57;100.00;102204.44;5086325;28;20675;-47
2021/12/20 09:31:50;;;;;;;0.08;0.00;;;;;;;4.59;100.00;102205.16;5077748;28;20025;-46
2021/12/20 09:34:15;;;;;;;0.45;0.10;;;;;;;4.64;100.00;102202.22;5078989;28;20052;-50
2021/12/20 09:36:41;;;;;;;0.30;0.30;;;;;;;4.68;100.00;102216.81;5084536;28;20032;-48
2021/12/20 09:39:10;;;;;;;0.10;0.00;;;;;;;4.67;100.00;102205.44;5070193;28;20028;-48
2021/12/20 09:44:05;;;;;;;0.68;0.20;;;;;;;4.74;100.00;102205.84;5081150;28;20204;-48
2021/12/20 09:46:31;;;;;;;0.05;0.00;;;;;;;4.76;100.00;102212.69;5077127;28;20037;-51
2021/12/20 09:48:57;;;;;;;0.20;0.10;;;;;;;4.76;100.00;102207.41;5083879;28;20595;-52
2021/12/20 09:51:24;;;;;;;2.65;0.05;;;;;;;4.77;100.00;102206.47;5083576;28;20032;-46
2021/12/20 09:53:49;;;;;;;0.20;0.20;;;;;;;4.78;100.00;102215.22;5077051;28;20538;-46
2021/12/20 09:56:17;;;;;;;0.20;0.10;;;;;;;4.79;100.00;102214.25;5082356;28;20020;-50
2021/12/20 09:58:46;;;;;;;1.52;0.35;;;;;;;4.80;100.00;102226.41;5075281;28;20032;-47
2021/12/20 10:01:13;;;;;;;0.17;0.10;;;;;;;4.82;100.00;102222.75;5070615;28;20043;-48
2021/12/20 10:03:40;;;;;;;0.30;0.30;;;;;;;4.89;100.00;102217.06;5082886;28;20059;-52
2021/12/20 10:06:06;;;;;;;1.40;0.28;;;;;;;4.93;100.00;102215.88;5084550;28;20170;-49
2021/12/20 10:08:33;;;;;;;0.10;0.10;;;;;;;4.98;100.00;102211.97;5074957;28;20044;-50
2021/12/20 10:11:03;;;;;;;1.40;0.13;;;;;;;5.05;100.00;102211.50;5078188;28;20027;-51
2021/12/20 10:13:37;;;;;;;0.47;0.20;;;;;;;5.09;100.00;102215.59;5076857;28;20028;-52
2021/12/20 10:16:12;;;;;;;0.60;0.15;;;;;;;5.11;100.00;102208.41;5077468;28;20051;-47
2021/12/20 10:18:37;;;;;;;0.65;0.08;;;;;;;5.10;100.00;102210.22;5081056;28;20020;-50
2021/12/20 10:21:04;;;;;;;0.47;0.35;;;;;;;5.11;100.00;102205.78;5082192;28;20376;-47
2021/12/20 10:23:39;;;;;;;0.03;0.00;;;;;;;5.11;100.00;102208.41;5076788;28;20031;-53
2021/12/20 10:26:20;;;;;;;1.45;0.20;;;;;;;5.10;100.00;102194.44;5079321;28;20036;-50
2021/12/20 10:28:49;;;;;;;0.00;0.00;;;;;;;5.10;100.00;102193.59;5071711;28;20043;-48
2021/12/20 10:31:17;;;;;;;0.40;0.05;;;;;;;5.08;100.00;102200.75;5078493;28;20358;-48
2021/12/20 10:33:56;;;;;;;0.10;0.00;;;;;;;5.06;100.00;102207.91;5077509;28;20024;-50
2021/12/20 10:36:22;;;;;;;0.57;0.30;;;;;;;5.03;100.00;102208.97;5081322;28;20032;-49
2021/12/20 10:38:59;;;;;;;0.30;0.20;;;;;;;5.03;100.00;102211.59;5077332;28;20082;-48
2021/12/20 10:41:36;;;;;;;0.10;0.00;;;;;;;5.01;100.00;102208.28;5075078;28;20445;-48
2021/12/20 10:44:21;;;;;;;0.38;0.38;;;;;;;4.98;100.00;102209.34;5078693;28;20458;-48
2021/12/20 10:46:50;;;;;;;0.20;0.00;;;;;;;5.00;100.00;102214.47;5082638;28;20036;-50
2021/12/20 10:49:18;;;;;;;0.30;0.30;;;;;;;4.99;100.00;102218.91;5072301;28;20028;-46
2021/12/20 10:51:49;;;;;;;0.35;0.10;;;;;;;5.00;100.00;102223.19;5068044;28;20067;-48
2021/12/20 10:54:19;;;;;;;0.40;0.00;;;;;;;4.98;100.00;102219.84;5078130;28;20039;-53
2021/12/20 10:56:53;;;;;;;0.00;0.00;;;;;;;4.96;100.00;102215.66;5080092;28;20024;-47
2021/12/20 10:59:26;;;;;;;1.00;0.15;;;;;;;4.93;100.00;102216.72;5082013;28;20042;-48
2021/12/20 11:04:31;;;;;;;0.95;0.50;;;;;;;4.95;100.00;102214.78;5080341;28;20040;-49
2021/12/20 11:09:42;;;;;;;1.55;0.22;;;;;;;4.87;100.00;102211.06;5082931;28;20431;-47
2021/12/20 11:12:10;;;;;;;0.52;0.10;;;;;;;4.88;100.00;102205.72;5081291;28;20020;-47
2021/12/20 11:14:42;;;;;;;1.42;0.60;;;;;;;4.90;100.00;102206.41;5077525;28;20041;-49
2021/12/20 11:17:14;;;;;;;1.67;0.17;;;;;;;4.88;100.00;102217.97;5082361;28;20369;-49
2021/12/20 11:19:41;;;;;;;0.40;0.20;;;;;;;4.85;100.00;102212.97;5080229;28;20028;-53
2021/12/20 11:22:24;;;;;;;1.85;0.43;;;;;;;4.87;100.00;102219.78;5079915;28;20028;-51
2021/12/20 11:24:51;;;;;;;2.85;0.30;;;;;;;4.81;100.00;102207.94;5078339;28;20036;-50
2021/12/20 11:27:19;;;;;;;1.40;0.35;;;;;;;4.77;100.00;102200.38;5078352;28;20073;-52
2021/12/20 11:29:46;;;;;;;4.10;0.70;;;;;;;4.77;100.00;102205.63;5072460;28;20068;-48
2021/12/20 11:32:12;;;;;;;3.55;1.25;;;;;;;4.74;100.00;102205.84;5078448;28;20024;-49
2021/12/20 11:34:41;;;;;;;4.25;0.80;;;;;;;4.71;100.00;102199.03;5080072;28;20023;-48
2021/12/20 11:37:11;;;;;;;4.70;0.77;;;;;;;4.73;100.00;102197.13;5076592;28;20427;-49
2021/12/20 11:39:37;;;;;;;2.03;0.45;;;;;;;4.73;100.00;102196.31;5080283;28;20117;-52
2021/12/20 11:42:05;;;;;;;1.52;0.60;;;;;;;4.74;100.00;102188.28;5075315;28;20048;-49
2021/12/20 11:44:30;;;;;;;4.28;0.60;;;;;;;4.76;100.00;102191.66;5075132;28;20380;-49
2021/12/20 11:47:08;;;;;;;3.08;1.15;;;;;;;4.75;100.00;102187.34;5083041;28;20036;-47
2021/12/20 11:49:35;;;;;;;5.72;0.65;;;;;;;4.78;100.00;102189.75;5077931;28;20560;-47